Impacts METAR Board
IDs:

KHYI - San Marcos Muni, TX, US

Updated at: 1200 UTC 16 Jul 2019
Potential Impact None Slight Moderate High
Time 16/00Z 16/01Z 16/02Z 16/03Z 16/04Z 16/05Z 16/06Z 16/07Z 16/08Z 16/09Z 16/10Z 16/11Z 16/12Z
Temp93 92 88 86 84 82 80 79 78 78 78 78 77
Dewpt74 73 74 74 75 75 75 75 75 75 75 75 75
Altim29.87 29.88 29.89 29.91 29.94 29.95 29.97 29.97 29.97 29.98 29.98 30.00 30.00
VIS10 10 10 10 10 10 10 10 10 10 10 10 10
CIG-- -- -- -- -- -- -- -- -- 13 15 19 --
CoverFEWFEWCLRCLRCLRCLRCLRCLRCLROVCBKNOVCFEW
FltCatVFRVFRVFRVFRVFRVFRVFRVFRVFRMVFRMVFRMVFRVFR
WX--------------------------
WDir120170160150160170180180160180180180180
WSpd5 8 9 10 13 9 7 5 3 6 6 6 6
WGst-- -- -- -- -- -- -- -- -- -- -- -- --
Raw hourly METARs
KHYI 152356Z AUTO 12005KT 10SM FEW060 34/23 A2987 RMK AO2 SLP104 T03390233 10372 20317 58009
KHYI 160056Z AUTO 17008KT 10SM FEW055 33/23 A2988 RMK AO2 SLP108 T03330228
KHYI 160156Z AUTO 16009KT 10SM CLR 31/23 A2989 RMK AO2 SLP112 T03110233
KHYI 160256Z AUTO 15010KT 10SM CLR 30/23 A2991 RMK AO2 SLP118 T03000233 53015
KHYI 160356Z AUTO 16013KT 10SM CLR 29/24 A2994 RMK AO2 SLP127 T02890239
KHYI 160456Z AUTO 17009KT 10SM CLR 28/24 A2995 RMK AO2 SLP131 T02780239
KHYI 160556Z AUTO 18007KT 10SM CLR 27/24 A2997 RMK AO2 SLP136 T02670239 10344 20267 403720233 51018
KHYI 160656Z AUTO 18005KT 10SM CLR 26/24 A2997 RMK AO2 SLP136 T02610239
KHYI 160756Z AUTO 16003KT 10SM CLR 26/24 A2997 RMK AO2 SLP138 T02560239
KHYI 160856Z AUTO 18006KT 10SM OVC013 26/24 A2998 RMK AO2 SLP139 T02560239 53003
KHYI 160956Z AUTO 18006KT 10SM BKN015 26/24 A2998 RMK AO2 SLP140 T02560239
KHYI 161056Z AUTO 18006KT 10SM OVC019 26/24 A3000 RMK AO2 SLP147 T02560239
KHYI 161156Z 18006KT 10SM FEW025 25/24 A3000 RMK AO2 SLP149 7//// T02500239 10267 20250 51008